aamulehti.fi alexa rank chart, aamulehti.fi alexa rank daily changes

aamulehti.fi alexa rank chart, aamulehti.fi alexa rank daily changes

aamulehti.fi
Actual rank:
35 515

RANK HISTORY

Date Rank Diff
2018/04/25 35 515 -11 015
2018/04/24 46 530 +10 895
2018/04/23 35 635 -15 444
2018/04/22 51 079 +1 831
2018/04/21 49 248 +18 803
2018/04/20 30 445 -23 411
2018/04/19 53 856 +12 611
2018/04/18 41 245 +8 321
2018/04/17 32 924 -8 684
2018/04/16 41 608 +6 403
2018/04/15 35 205 -5 643
2018/04/14 40 848 +1 127
2018/04/13 39 721 +8 445
2018/04/12 31 276 +2 222
2018/04/11 29 054 -5 781
2018/04/10 34 835 -20 905
2018/04/09 55 740 +23 663
2018/04/08 32 077 -2 830
2018/04/07 34 907 -2 265
2018/04/06 37 172 +14 302
2018/04/05 22 870 -16 133
2018/04/04 39 003 +5 188
2018/04/03 33 815 +4 764
2018/04/02 29 051 -7 378
2018/04/01 36 429 +5 088
2018/03/31 31 341 -12 896
2018/03/30 44 237 +12 588
2018/03/29 31 649 -304
2018/03/28 31 953 -3 985
2018/03/27 35 938 -4 654
2018/03/26 40 592 -2 650
2018/03/25 43 242 +16 070
2018/03/24 27 172 -16 373
2018/03/23 43 545 +8 034
2018/03/22 35 511 -2 624
2018/03/21 38 135 -6 298
2018/03/20 44 433 -12 881
2018/03/19 57 314 +19 009
2018/03/18 38 305 -3 070
2018/03/17 41 375 -984
2018/03/16 42 359 -3 597
2018/03/15 45 956 +3 856
2018/03/14 42 100 +12 878
2018/03/13 29 222 -20 877
2018/03/12 50 099 +14 741
2018/03/11 35 358 -172
2018/03/10 35 530 -12 882
2018/03/09 48 412 +11 360
2018/03/08 37 052 -3 592
2018/03/07 40 644 -6 540
2018/03/06 47 184 +10 791
2018/03/05 36 393 +6 223
2018/03/04 30 170 -179
2018/03/03 30 349 -556
2018/03/02 30 905 -9 422
2018/03/01 40 327 -1 372
2018/02/28 41 699 -4 048
2018/02/27 45 747 +9 318
2018/02/26 36 429 -6 864
2018/02/25 43 293 +7 229
2018/02/24 36 064

WIDGET FOR YOUR SITE

DOMAINS WITH THE NEAREST RANK

Domain Rank
therapyjoker.com 35 510
loger.ir 35 511
hentai-image.com 35 512
nar.az 35 513
blogspot.hr 35 514
aamulehti.fi 35 515
emu.edu.tr 35 516
ibmcloud.com 35 517
torrentool.com 35 518
phantasytour.com 35 519
bobyfilms.net 35 520

DOMAINS WITH THE NEAREST RANK BY TLD .fi

Domain Rank
mol.fi 31 992
sanomapro.fi 32 484
finnkino.fi 33 088
uef.fi 34 321
pirnet.fi 34 598
aamulehti.fi 35 515
utu.fi 36 269
uta.fi 36 598
saastopankki.fi 36 748
liiga.fi 37 468
power.fi 37 931